Weather at Artemed Klinikum München Süd Heliport

Public forecast

Using degrees Celsius for public forecast. Weather courtesy of forecast.io.

Closest aviation weather report (METAR) to Artemed Klinikum München Süd Heliport

Closest report is Oberpfaffenhofen Airport, 10.7 nm (19.8 km) W. Retrieved 2022/06/29 00:50 UTC (18 minutes ago):

EDMO 290050Z AUTO 16003KT 130V190 9999 // OVC006/// 17/15 Q1016

Closest aviation forecast (TAF) to Artemed Klinikum München Süd Heliport

Closest forecast is Munich Airport, 17.8 nm (33.0 km) NNE. Retrieved 2022-06-29 00:27 UTC (41 minutes ago):

TAF EDDM 282300Z 2900/3006 36004KT 9999 SCT045 TEMPO 2902/2908 BKN008 BECMG 2905/2907 25006KT PROB30 TEMPO 2912/2918 SHRA BKN014CB BECMG 2921/2923 VRB02KT PROB30 TEMPO 2922/3006 3000 BCFG